UTN weather

Pierre Van Ryneveld Airport
Upington, Northern Cape, South Africa

Public forecast

Using degrees Celsius for public forecast. Weather courtesy of forecast.io.

METAR (pilot weather report)

Retrieved 2019/05/19 13:00 UTC (52 minutes ago):

FAUP 191300Z 34018KT CAVOK 31/M00 Q1016 NOSIG

TAF (pilot weather forecast)

Retrieved 2019/05/19 12:00 UTC (2 hours ago):

TAF FAUP 191000Z 1912/2012 35020KT CAVOK TX31/1912Z TN12/2004Z BECMG 1914/1916 35010KT BECMG 2006/2008 34010KT